Time;durP1;ratioP1;P1;durP2;ratioP2;P2;SDS_P1;SDS_P2;PMS_P1;PMS_P2;Temp;Humidity;BMP_temperature;BMP_pressure;BME280_temperature;BME280_humidity;BME280_pressure;Samples;Min_cycle;Max_cycle;Signal;HPM_P1;HPM_P2
2023/02/28 00:02:24;;;;;;;;;;;;;;;16.26;46.11;101767.38;4998264;28;1072;-59
2023/02/28 00:04:52;;;;;;;;;;;;;;;17.20;46.73;101778.78;4998576;28;1136;-59
2023/02/28 00:07:18;;;;;;;;;;;;;;;16.50;47.40;101770.81;4998426;28;1029;-58
2023/02/28 00:09:44;;;;;;;;;;;;;;;16.24;46.58;101781.34;4998958;28;1100;-58
2023/02/28 00:12:10;;;;;;;;;;;;;;;17.00;46.92;101791.16;4998293;28;1072;-61
2023/02/28 00:14:36;;;;;;;;;;;;;;;16.35;47.33;101800.75;4997775;28;1111;-58
2023/02/28 00:17:01;;;;;;;;;;;;;;;17.23;46.97;101800.25;4998620;28;1091;-58
2023/02/28 00:19:27;;;;;;;;;;;;;;;16.80;47.52;101802.59;4998834;28;1981;-58
2023/02/28 00:21:52;;;;;;;;;;;;;;;16.45;47.32;101805.59;4998093;28;1218;-59
2023/02/28 00:24:17;;;;;;;;;;;;;;;16.22;46.51;101788.16;4998309;28;1113;-58
2023/02/28 00:26:43;;;;;;;;;;;;;;;16.41;47.00;101795.09;4998650;28;1120;-59
2023/02/28 00:29:08;;;;;;;;;;;;;;;16.80;47.16;101796.28;4997822;28;1123;-60
2023/02/28 00:31:34;;;;;;;;;;;;;;;16.38;46.91;101790.13;4996692;28;1382;-59
2023/02/28 00:33:59;;;;;;;;;;;;;;;16.11;46.92;101797.28;4998170;28;1068;-59
2023/02/28 00:36:24;;;;;;;;;;;;;;;15.97;46.07;101783.84;4997703;28;1132;-60
2023/02/28 00:38:50;;;;;;;;;;;;;;;17.48;46.08;101783.28;5013264;28;1980;-58
2023/02/28 00:41:15;;;;;;;;;;;;;;;16.51;47.35;101799.09;4997837;28;1457;-58
2023/02/28 00:43:41;;;;;;;;;;;;;;;16.98;46.99;101808.97;4997817;28;1125;-58
2023/02/28 00:46:06;;;;;;;;;;;;;;;17.24;46.89;101812.94;5022997;28;1187;-58
2023/02/28 00:48:32;;;;;;;;;;;;;;;16.57;47.21;101790.69;4997669;28;1060;-58
2023/02/28 00:50:57;;;;;;;;;;;;;;;16.28;47.10;101778.13;4980588;28;1231;-58
2023/02/28 00:53:24;;;;;;;;;;;;;;;16.15;46.47;101795.72;4998269;28;1138;-58
2023/02/28 00:55:50;;;;;;;;;;;;;;;16.20;46.40;101796.66;4997622;28;993;-58
2023/02/28 00:58:15;;;;;;;;;;;;;;;17.35;46.56;101791.88;4997622;28;1898;-58
2023/02/28 01:00:40;;;;;;;;;;;;;;;16.49;47.52;101796.59;4997096;28;1040;-57
2023/02/28 01:03:06;;;;;;;;;;;;;;;16.18;47.04;101785.06;5012595;28;1020;-57
2023/02/28 01:05:31;;;;;;;;;;;;;;;16.07;46.31;101778.59;4997502;28;1240;-57
2023/02/28 01:07:57;;;;;;;;;;;;;;;15.91;46.09;101795.81;4997859;28;1056;-59
2023/02/28 01:10:22;;;;;;;;;;;;;;;16.52;46.18;101801.59;5012877;28;1175;-57
2023/02/28 01:12:48;;;;;;;;;;;;;;;16.81;47.04;101815.25;4997048;28;1176;-56
2023/02/28 01:15:14;;;;;;;;;;;;;;;16.17;47.52;101826.47;4996917;28;1092;-56
2023/02/28 01:17:40;;;;;;;;;;;;;;;15.99;46.66;101825.59;4997565;28;1084;-56
2023/02/28 01:20:05;;;;;;;;;;;;;;;16.91;46.53;101826.47;4997405;28;1902;-56
2023/02/28 01:22:31;;;;;;;;;;;;;;;16.52;47.22;101817.22;4979595;28;1172;-56
2023/02/28 01:24:56;;;;;;;;;;;;;;;16.19;46.90;101821.59;5011984;28;1211;-60
2023/02/28 01:27:22;;;;;;;;;;;;;;;16.68;46.78;101819.16;4997279;28;1135;-59
2023/02/28 01:29:47;;;;;;;;;;;;;;;16.86;46.87;101836.50;4996660;28;1076;-58
2023/02/28 01:32:14;;;;;;;;;;;;;;;16.32;46.98;101831.44;5012278;28;1080;-58
2023/02/28 01:34:40;;;;;;;;;;;;;;;16.10;46.59;101810.16;4997213;28;1168;-61
2023/02/28 01:37:05;;;;;;;;;;;;;;;16.87;46.82;101807.94;5011349;28;1942;-60
2023/02/28 01:39:31;;;;;;;;;;;;;;;16.25;46.97;101824.16;4996991;28;1971;-59
2023/02/28 01:41:56;;;;;;;;;;;;;;;16.38;47.08;101838.66;4997132;28;1147;-59
2023/02/28 01:44:40;;;;;;;;;;;;;;;16.51;47.01;101848.50;5011872;28;1281;-59
2023/02/28 01:47:06;;;;;;;;;;;;;;;16.11;46.95;101827.47;4997036;28;1164;-58
2023/02/28 01:49:31;;;;;;;;;;;;;;;16.83;46.85;101836.97;5011848;28;1194;-58
2023/02/28 01:51:56;;;;;;;;;;;;;;;16.38;47.46;101850.50;4996871;28;1216;-58
2023/02/28 01:54:25;;;;;;;;;;;;;;;16.18;47.03;101833.63;4996483;28;1068;-59
2023/02/28 01:57:10;;;;;;;;;;;;;;;17.26;46.24;101819.84;4996905;28;1220;-58
2023/02/28 01:59:38;;;;;;;;;;;;;;;16.39;47.07;101827.44;4979424;28;1978;-57
2023/02/28 02:02:04;;;;;;;;;;;;;;;17.77;45.66;101833.44;5011715;28;1295;-57
2023/02/28 02:04:32;;;;;;;;;;;;;;;16.88;47.28;101837.94;5012251;28;1135;-58
2023/02/28 02:06:58;;;;;;;;;;;;;;;16.47;47.01;101841.88;4996412;28;1128;-58
2023/02/28 02:09:23;;;;;;;;;;;;;;;16.23;46.52;101840.06;5012422;28;1056;-58
2023/02/28 02:11:51;;;;;;;;;;;;;;;17.08;46.73;101826.44;4997297;28;1076;-57
2023/02/28 02:14:17;;;;;;;;;;;;;;;16.45;47.06;101833.84;4996819;28;877;-57
2023/02/28 02:16:45;;;;;;;;;;;;;;;16.17;46.79;101834.72;4996534;28;1171;-57
2023/02/28 02:19:25;;;;;;;;;;;;;;;16.11;45.95;101838.44;4996806;28;1989;-57
2023/02/28 02:21:54;;;;;;;;;;;;;;;15.95;45.74;101834.53;4996330;28;1208;-57
2023/02/28 02:24:22;;;;;;;;;;;;;;;16.87;46.38;101822.50;4996758;28;1137;-58
2023/02/28 02:26:57;;;;;;;;;;;;;;;16.06;47.47;101834.53;4996731;28;1064;-57
2023/02/28 02:29:30;;;;;;;;;;;;;;;16.03;46.34;101813.06;4996169;28;1049;-57
2023/02/28 02:32:00;;;;;;;;;;;;;;;15.90;46.23;101811.41;5011583;28;1139;-58
2023/02/28 02:34:39;;;;;;;;;;;;;;;17.00;46.03;101824.13;4996878;28;1188;-57
2023/02/28 02:37:08;;;;;;;;;;;;;;;16.18;46.87;101830.91;5011716;28;1095;-58
2023/02/28 02:39:36;;;;;;;;;;;;;;;17.73;45.55;101843.28;4996628;28;1979;-58
2023/02/28 02:42:03;;;;;;;;;;;;;;;16.74;47.31;101834.63;4999588;28;1128;-56
2023/02/28 02:44:30;;;;;;;;;;;;;;;16.38;46.91;101839.53;4999970;28;1206;-55
2023/02/28 02:47:00;;;;;;;;;;;;;;;17.10;46.51;101843.50;5015462;28;1143;-56
2023/02/28 02:49:28;;;;;;;;;;;;;;;16.34;47.48;101849.31;5014467;28;1099;-58
2023/02/28 02:51:54;;;;;;;;;;;;;;;16.14;46.63;101849.75;5015276;28;1116;-58
2023/02/28 02:54:20;;;;;;;;;;;;;;;16.11;45.89;101855.72;5000186;28;1064;-58
2023/02/28 02:56:46;;;;;;;;;;;;;;;17.44;45.75;101848.94;5015020;28;1204;-56
2023/02/28 02:59:12;;;;;;;;;;;;;;;16.39;47.36;101846.66;4997939;28;1902;-57
2023/02/28 03:01:39;;;;;;;;;;;;;;;16.17;46.72;101834.72;4998268;28;1387;-57
2023/02/28 03:04:09;;;;;;;;;;;;;;;17.23;46.21;101838.75;4999619;28;1248;-57
2023/02/28 03:06:35;;;;;;;;;;;;;;;16.42;47.24;101846.19;4999472;28;1227;-57
2023/02/28 03:09:00;;;;;;;;;;;;;;;17.57;46.12;101856.03;4998322;28;1206;-57
2023/02/28 03:11:26;;;;;;;;;;;;;;;17.13;47.00;101866.09;4999777;28;1076;-58
2023/02/28 03:13:51;;;;;;;;;;;;;;;16.49;47.51;101875.38;4999240;28;1215;-57
2023/02/28 03:16:37;;;;;;;;;;;;;;;16.38;46.62;101872.47;5014684;28;1369;-57
2023/02/28 03:19:10;;;;;;;;;;;;;;;16.75;46.81;101888.50;5003216;28;1906;-59
2023/02/28 03:21:40;;;;;;;;;;;;;;;16.62;47.24;101872.34;5014504;28;1216;-59
2023/02/28 03:24:36;;;;;;;;;;;;;;;16.30;46.75;101881.09;5014818;28;1060;-59
2023/02/28 03:27:07;;;;;;;;;;;;;;;16.11;46.30;101857.66;4957129;28;1367;-59
2023/02/28 03:29:33;;;;;;;;;;;;;;;16.00;45.93;101857.44;5008783;28;1060;-60
2023/02/28 03:32:14;;;;;;;;;;;;;;;16.83;46.63;101850.72;4999255;28;1157;-60
2023/02/28 03:34:41;;;;;;;;;;;;;;;16.20;46.85;101851.53;4999058;28;1084;-61
2023/02/28 03:37:12;;;;;;;;;;;;;;;16.08;46.47;101864.47;4999193;28;1073;-61
2023/02/28 03:39:38;;;;;;;;;;;;;;;16.90;46.21;101863.25;5014218;28;1988;-61
2023/02/28 03:42:05;;;;;;;;;;;;;;;16.53;47.07;101852.69;4998985;28;1048;-61
2023/02/28 03:44:35;;;;;;;;;;;;;;;16.18;46.95;101839.13;4998755;28;1551;-60
2023/02/28 03:47:02;;;;;;;;;;;;;;;16.79;46.80;101855.88;5014355;28;1424;-60
2023/02/28 03:49:32;;;;;;;;;;;;;;;16.90;46.84;101871.50;5013526;28;1107;-60
2023/02/28 03:51:58;;;;;;;;;;;;;;;16.35;47.10;101883.91;5014275;28;1122;-60
2023/02/28 03:54:26;;;;;;;;;;;;;;;16.12;46.50;101889.47;5014169;28;1150;-60
2023/02/28 03:56:53;;;;;;;;;;;;;;;17.12;46.31;101880.91;5013613;28;1165;-60
2023/02/28 03:59:18;;;;;;;;;;;;;;;16.31;47.30;101888.22;5013714;28;1906;-60
2023/02/28 04:01:45;;;;;;;;;;;;;;;16.12;46.70;101892.22;4998677;28;1016;-59
2023/02/28 04:04:10;;;;;;;;;;;;;;;17.02;46.38;101892.56;4998641;28;1087;-59
2023/02/28 04:06:36;;;;;;;;;;;;;;;16.37;46.79;101892.75;4998615;28;1080;-59
2023/02/28 04:09:02;;;;;;;;;;;;;;;16.15;46.43;101894.50;4998774;28;1148;-60
2023/02/28 04:11:34;;;;;;;;;;;;;;;17.18;46.24;101886.22;4997629;28;1057;-59
2023/02/28 04:14:00;;;;;;;;;;;;;;;16.53;46.94;101890.28;4998151;28;1211;-54
2023/02/28 04:16:26;;;;;;;;;;;;;;;16.21;46.56;101893.53;4998183;28;1166;-51
2023/02/28 04:18:51;;;;;;;;;;;;;;;17.55;45.52;101895.84;4998606;28;1981;-61
2023/02/28 04:21:20;;;;;;;;;;;;;;;16.43;47.26;101886.25;4997127;28;1616;-61
2023/02/28 04:23:46;;;;;;;;;;;;;;;16.82;46.99;101884.78;4998403;28;963;-64
2023/02/28 04:26:11;;;;;;;;;;;;;;;16.83;46.79;101881.78;4997910;28;1180;-65
2023/02/28 04:28:37;;;;;;;;;;;;;;;16.36;46.93;101874.59;4998299;28;1088;-64
2023/02/28 04:31:03;;;;;;;;;;;;;;;16.28;47.14;101883.22;4998394;28;1132;-65
2023/02/28 04:33:29;;;;;;;;;;;;;;;16.83;46.96;101878.19;4998627;28;1101;-65
2023/02/28 04:36:01;;;;;;;;;;;;;;;16.29;47.08;101875.84;4998322;28;1056;-65
2023/02/28 04:38:26;;;;;;;;;;;;;;;17.57;45.79;101868.91;4997608;28;1914;-65
2023/02/28 04:40:51;;;;;;;;;;;;;;;16.65;47.12;101863.63;4997733;28;1076;-60
2023/02/28 04:43:17;;;;;;;;;;;;;;;16.23;46.94;101867.50;4997446;28;1311;-59
2023/02/28 04:45:42;;;;;;;;;;;;;;;16.20;46.68;101862.50;4997948;28;1389;-59
2023/02/28 04:48:08;;;;;;;;;;;;;;;16.66;47.25;101868.03;4998001;28;1307;-66
2023/02/28 04:50:33;;;;;;;;;;;;;;;16.18;47.25;101850.94;4998112;28;1242;-63
2023/02/28 04:52:59;;;;;;;;;;;;;;;16.35;47.10;101848.22;4997840;28;1199;-61
2023/02/28 04:55:24;;;;;;;;;;;;;;;16.82;46.91;101860.06;4997630;28;1211;-63
2023/02/28 04:57:49;;;;;;;;;;;;;;;16.36;47.10;101873.78;4997898;28;1131;-65
2023/02/28 05:00:16;;;;;;;;;;;;;;;16.15;46.21;101872.56;4997670;28;1899;-59
2023/02/28 05:02:42;;;;;;;;;;;;;;;16.86;46.49;101866.72;4996532;28;890;-62
2023/02/28 05:05:07;;;;;;;;;;;;;;;16.22;47.19;101870.50;4995875;28;1016;-61
2023/02/28 05:07:33;;;;;;;;;;;;;;;16.74;46.99;101870.34;4980311;28;1112;-58
2023/02/28 05:09:58;;;;;;;;;;;;;;;16.80;46.82;101856.72;4997414;28;1179;-59
2023/02/28 05:12:23;;;;;;;;;;;;;;;17.37;46.49;101877.72;4996667;28;1040;-60
2023/02/28 05:14:49;;;;;;;;;;;;;;;18.66;44.21;101887.56;4996060;28;1051;-59
2023/02/28 05:17:14;;;;;;;;;;;;;;;17.07;47.34;101887.97;4997681;28;1073;-59
2023/02/28 05:19:40;;;;;;;;;;;;;;;16.69;47.03;101892.25;4997284;28;1902;-62
2023/02/28 05:22:11;;;;;;;;;;;;;;;16.54;46.17;101892.78;4997614;28;1060;-56
2023/02/28 05:24:36;;;;;;;;;;;;;;;17.05;46.91;101903.88;5012327;28;1270;-58
2023/02/28 05:27:03;;;;;;;;;;;;;;;16.83;47.43;101912.00;4996952;28;859;-59
2023/02/28 05:29:28;;;;;;;;;;;;;;;16.41;47.24;101923.28;4996955;28;1143;-58
2023/02/28 05:31:54;;;;;;;;;;;;;;;16.48;46.89;101932.22;4997143;28;1008;-59
2023/02/28 05:34:19;;;;;;;;;;;;;;;16.74;47.39;101929.94;4997084;28;1223;-60
2023/02/28 05:36:45;;;;;;;;;;;;;;;16.47;46.70;101943.47;4997385;28;1207;-58
2023/02/28 05:39:12;;;;;;;;;;;;;;;17.21;46.50;101957.19;4996893;28;1973;-61
2023/02/28 05:41:38;;;;;;;;;;;;;;;16.70;47.31;101973.53;4997209;28;1112;-64
2023/02/28 05:44:04;;;;;;;;;;;;;;;16.36;46.98;101986.31;4997151;28;1230;-63
2023/02/28 05:46:29;;;;;;;;;;;;;;;16.56;46.79;101980.41;4997373;28;1109;-62
2023/02/28 05:48:56;;;;;;;;;;;;;;;16.82;47.06;101980.94;4997251;28;1137;-63
2023/02/28 05:51:21;;;;;;;;;;;;;;;16.27;47.18;101974.91;4996705;28;906;-63
2023/02/28 05:53:48;;;;;;;;;;;;;;;16.70;47.05;101975.47;4997132;28;1211;-64
2023/02/28 05:56:14;;;;;;;;;;;;;;;16.59;47.23;101969.78;4996743;28;1029;-63
2023/02/28 05:58:39;;;;;;;;;;;;;;;16.24;46.93;101959.75;4996987;28;1898;-65
2023/02/28 06:01:20;;;;;;;;;;;;;;;17.62;45.50;101962.50;4997052;28;1096;-65
2023/02/28 06:03:46;;;;;;;;;;;;;;;16.49;47.19;101966.00;4996250;28;1032;-65
2023/02/28 06:06:11;;;;;;;;;;;;;;;16.25;46.76;101974.28;4996880;28;1044;-65
2023/02/28 06:08:36;;;;;;;;;;;;;;;17.60;45.88;101981.19;4996990;28;1199;-58
2023/02/28 06:11:06;;;;;;;;;;;;;;;16.61;47.26;101986.00;4997000;28;1115;-55
2023/02/28 06:13:31;;;;;;;;;;;;;;;16.31;46.99;101987.03;4996507;28;1056;-58
2023/02/28 06:16:00;;;;;;;;;;;;;;;17.38;45.41;101990.19;5000065;28;1430;-58
2023/02/28 06:18:25;;;;;;;;;;;;;;;16.83;46.62;101982.56;5000876;28;1976;-57
2023/02/28 06:20:57;;;;;;;;;;;;;;;16.50;47.59;101987.72;5001269;28;1129;-56
2023/02/28 06:23:22;;;;;;;;;;;;;;;16.28;48.14;101972.97;5000559;28;1148;-58
2023/02/28 06:25:47;;;;;;;;;;;;;;;16.15;48.51;101982.31;5000339;28;1111;-58
2023/02/28 06:28:13;;;;;;;;;;;;;;;16.01;48.72;101985.31;4999922;28;934;-58
2023/02/28 06:30:39;;;;;;;;;;;;;;;15.89;49.19;101984.47;4999746;28;1107;-56
2023/02/28 06:33:04;;;;;;;;;;;;;;;15.71;49.41;101972.53;5000451;28;1150;-52
2023/02/28 06:35:30;;;;;;;;;;;;;;;15.67;49.50;101974.09;5000347;28;1020;-55
2023/02/28 06:37:55;;;;;;;;;;;;;;;15.59;49.92;101973.63;5000387;28;1068;-52
2023/02/28 06:40:20;;;;;;;;;;;;;;;15.47;50.19;101973.59;4999834;28;1927;-58
2023/02/28 06:42:46;;;;;;;;;;;;;;;15.39;50.34;101970.13;5000331;28;1318;-56
2023/02/28 06:45:11;;;;;;;;;;;;;;;15.90;49.41;101972.44;4998930;28;1226;-58
2023/02/28 06:47:37;;;;;;;;;;;;;;;17.36;45.58;101975.88;4999403;28;1044;-59
2023/02/28 06:50:03;;;;;;;;;;;;;;;18.15;43.79;101981.47;5000055;28;968;-52
2023/02/28 06:52:30;;;;;;;;;;;;;;;17.33;45.78;101981.84;4999702;28;1116;-54
2023/02/28 06:54:59;;;;;;;;;;;;;;;16.64;47.59;101981.94;4999748;28;1108;-56
2023/02/28 06:57:30;;;;;;;;;;;;;;;16.33;48.38;101976.66;4999502;28;1228;-56
2023/02/28 06:59:57;;;;;;;;;;;;;;;16.08;49.06;101977.78;4999384;28;1906;-56
2023/02/28 07:02:23;;;;;;;;;;;;;;;15.96;49.03;101971.47;4999369;28;1313;-55
2023/02/28 07:04:48;;;;;;;;;;;;;;;15.79;49.64;101970.50;5001710;28;1002;-58
2023/02/28 07:07:14;;;;;;;;;;;;;;;15.69;49.68;101969.19;4999441;28;1033;-57
2023/02/28 07:09:39;;;;;;;;;;;;;;;15.57;50.17;101969.19;4999025;28;1211;-58
2023/02/28 07:12:04;;;;;;;;;;;;;;;17.17;46.47;101974.44;4999875;28;1128;-58
2023/02/28 07:14:30;;;;;;;;;;;;;;;18.10;44.05;101973.94;4999206;28;1275;-58
2023/02/28 07:16:55;;;;;;;;;;;;;;;17.88;44.46;101976.63;4999262;28;894;-58
2023/02/28 07:19:21;;;;;;;;;;;;;;;16.90;47.10;101978.63;4999476;28;1910;-60
2023/02/28 07:21:46;;;;;;;;;;;;;;;16.49;48.16;101983.28;4998969;28;1144;-57
2023/02/28 07:24:12;;;;;;;;;;;;;;;16.26;48.72;101978.72;4998739;28;1136;-56
2023/02/28 07:26:37;;;;;;;;;;;;;;;16.10;48.93;101979.44;4998248;28;1008;-58
2023/02/28 07:29:03;;;;;;;;;;;;;;;15.87;49.42;101976.47;4999478;28;1063;-59
2023/02/28 07:31:28;;;;;;;;;;;;;;;15.79;49.70;101978.72;4998455;28;992;-56
2023/02/28 07:33:54;;;;;;;;;;;;;;;15.65;49.91;101975.38;4998786;28;1144;-59
2023/02/28 07:36:19;;;;;;;;;;;;;;;16.49;48.28;101976.97;4998986;28;1160;-56
2023/02/28 07:38:47;;;;;;;;;;;;;;;17.79;45.05;101966.09;4998097;28;1910;-59
2023/02/28 07:41:13;;;;;;;;;;;;;;;18.47;43.21;101952.13;4999134;28;1025;-57
2023/02/28 07:43:38;;;;;;;;;;;;;;;17.43;45.70;101953.69;4998976;28;1242;-57
2023/02/28 07:46:08;;;;;;;;;;;;;;;16.75;47.30;101959.09;4998908;28;1138;-57
2023/02/28 07:48:34;;;;;;;;;;;;;;;16.46;48.21;101963.75;4998010;28;1028;-58
2023/02/28 07:50:59;;;;;;;;;;;;;;;16.22;48.79;101956.38;4999672;28;1147;-58
2023/02/28 07:53:25;;;;;;;;;;;;;;;16.04;49.13;101959.31;4998395;28;1231;-60
2023/02/28 07:55:50;;;;;;;;;;;;;;;15.88;49.77;101966.38;4998346;28;1062;-58
2023/02/28 07:58:16;;;;;;;;;;;;;;;15.75;49.82;101972.88;4998393;28;1208;-58
2023/02/28 08:00:41;;;;;;;;;;;;;;;15.66;50.11;101972.41;4998477;28;1977;-59
2023/02/28 08:03:08;;;;;;;;;;;;;;;15.53;50.30;101980.88;4998383;28;1049;-56
2023/02/28 08:05:37;;;;;;;;;;;;;;;15.48;50.25;101987.06;4998406;28;1394;-54
2023/02/28 08:08:03;;;;;;;;;;;;;;;16.30;48.59;101996.38;4998000;28;1156;-53
2023/02/28 08:10:28;;;;;;;;;;;;;;;17.03;46.79;102007.72;4998659;28;1116;-53
2023/02/28 08:12:54;;;;;;;;;;;;;;;16.16;48.92;102005.91;4998313;28;1116;-57
2023/02/28 08:15:19;;;;;;;;;;;;;;;15.78;49.72;102004.47;4997964;28;1075;-51
2023/02/28 08:17:44;;;;;;;;;;;;;;;15.62;50.28;101995.88;4998121;28;1049;-56
2023/02/28 08:20:10;;;;;;;;;;;;;;;15.54;50.23;102004.47;4997945;28;1898;-57
2023/02/28 08:22:35;;;;;;;;;;;;;;;15.67;50.23;102006.13;4997931;28;1060;-56
2023/02/28 08:25:01;;;;;;;;;;;;;;;17.21;46.31;102000.34;4998319;28;1211;-55
2023/02/28 08:27:26;;;;;;;;;;;;;;;16.25;48.50;101999.00;4997811;28;1161;-56
2023/02/28 08:29:52;;;;;;;;;;;;;;;15.84;49.55;102003.56;5012940;28;1024;-53
2023/02/28 08:32:17;;;;;;;;;;;;;;;15.64;50.15;101998.38;4998103;28;1132;-56
2023/02/28 08:34:42;;;;;;;;;;;;;;;15.46;50.41;101997.44;4998048;28;1104;-52
2023/02/28 08:37:08;;;;;;;;;;;;;;;15.35;50.85;102007.28;4997570;28;1119;-52
2023/02/28 08:39:34;;;;;;;;;;;;;;;16.86;47.37;102001.34;4996189;28;1980;-54
2023/02/28 08:42:00;;;;;;;;;;;;;;;16.67;47.46;101996.00;4998024;28;1049;-53
2023/02/28 08:44:25;;;;;;;;;;;;;;;15.99;49.14;102011.31;4997497;28;1255;-48
2023/02/28 08:46:50;;;;;;;;;;;;;;;15.66;50.09;102007.22;4997541;28;1072;-50
2023/02/28 08:49:16;;;;;;;;;;;;;;;15.54;50.30;102009.94;4997146;28;1048;-56
2023/02/28 08:51:41;;;;;;;;;;;;;;;15.37;50.71;102013.38;4997479;28;1179;-52
2023/02/28 08:54:07;;;;;;;;;;;;;;;15.25;51.16;102012.53;4997469;28;1030;-54
2023/02/28 08:56:33;;;;;;;;;;;;;;;16.53;48.27;102005.63;4997441;28;1025;-54
2023/02/28 08:58:58;;;;;;;;;;;;;;;17.27;45.99;102015.84;4998007;28;1898;-56
2023/02/28 09:01:27;;;;;;;;;;;;;;;16.18;48.53;102009.28;4997177;28;1119;-56
2023/02/28 09:03:52;;;;;;;;;;;;;;;15.79;49.94;102011.66;4996934;28;1033;-51
2023/02/28 09:06:18;;;;;;;;;;;;;;;15.59;50.41;101999.09;4996944;28;1148;-52
2023/02/28 09:08:44;;;;;;;;;;;;;;;15.46;50.69;102002.06;4997505;28;1048;-55
2023/02/28 09:11:09;;;;;;;;;;;;;;;15.72;49.90;102003.53;4997446;28;1052;-55
2023/02/28 09:13:34;;;;;;;;;;;;;;;17.26;46.35;102001.28;4997197;28;1093;-54
2023/02/28 09:16:00;;;;;;;;;;;;;;;16.30;48.41;101998.25;4996848;28;1360;-58
2023/02/28 09:18:26;;;;;;;;;;;;;;;15.83;49.60;102004.63;4997233;28;1133;-50
2023/02/28 09:20:51;;;;;;;;;;;;;;;15.60;50.24;102009.00;4997211;28;1910;-55
2023/02/28 09:23:17;;;;;;;;;;;;;;;15.46;50.42;102007.53;4996749;28;1155;-56
2023/02/28 09:25:49;;;;;;;;;;;;;;;15.31;50.88;102005.28;4997253;28;1133;-54
2023/02/28 09:28:17;;;;;;;;;;;;;;;15.47;50.70;101995.50;5012101;28;1072;-54
2023/02/28 09:30:46;;;;;;;;;;;;;;;17.09;46.68;102000.41;4996210;28;1216;-56
2023/02/28 09:33:13;;;;;;;;;;;;;;;16.50;48.03;102000.63;5001493;28;1441;-54
2023/02/28 09:35:38;;;;;;;;;;;;;;;15.88;49.49;102000.09;4997005;28;1177;-56
2023/02/28 09:38:04;;;;;;;;;;;;;;;15.65;50.08;102006.38;4996322;28;1064;-54
2023/02/28 09:40:30;;;;;;;;;;;;;;;15.48;50.26;102013.66;4996510;28;1977;-57
2023/02/28 09:42:56;;;;;;;;;;;;;;;16.95;46.86;102012.78;4996385;28;1290;-56
2023/02/28 09:45:27;;;;;;;;;;;;;;;16.50;47.80;102017.09;4996650;28;1199;-55
2023/02/28 09:47:54;;;;;;;;;;;;;;;15.88;49.51;102022.06;5012305;28;1024;-56
2023/02/28 09:50:19;;;;;;;;;;;;;;;15.66;49.95;102013.53;4996260;28;1129;-53
2023/02/28 09:52:45;;;;;;;;;;;;;;;15.49;50.34;102024.38;4996184;28;946;-51
2023/02/28 09:55:30;;;;;;;;;;;;;;;15.35;50.91;102029.22;5011603;28;1176;-50
2023/02/28 09:57:57;;;;;;;;;;;;;;;15.48;50.46;102032.81;4992818;28;1270;-55
2023/02/28 10:00:30;;;;;;;;;;;;;;;17.07;46.76;102027.31;4996465;28;1981;-56
2023/02/28 10:03:11;;;;;;;;;;;;;;;16.58;47.70;102023.03;5011646;28;1060;-55
2023/02/28 10:05:38;;;;;;;;;;;;;;;15.90;49.20;102032.78;4996890;28;1029;-54
2023/02/28 10:08:08;;;;;;;;;;;;;;;15.66;49.93;102045.63;4996521;28;1188;-58
2023/02/28 10:10:46;;;;;;;;;;;;;;;15.47;50.34;102037.47;4996350;28;1148;-56
2023/02/28 10:13:32;;;;;;;;;;;;;;;15.31;50.98;102043.63;5011372;28;1143;-56
2023/02/28 10:15:59;;;;;;;;;;;;;;;17.16;46.58;102027.75;4996357;28;1149;-59
2023/02/28 10:18:25;;;;;;;;;;;;;;;16.41;48.16;102035.81;5011575;28;1159;-57
2023/02/28 10:20:52;;;;;;;;;;;;;;;15.87;49.56;102025.03;4996555;28;1959;-57
2023/02/28 10:23:17;;;;;;;;;;;;;;;15.64;50.22;102015.69;5013373;28;1188;-58
2023/02/28 10:25:47;;;;;;;;;;;;;;;15.47;50.35;102014.69;4996318;28;1115;-58
2023/02/28 10:28:17;;;;;;;;;;;;;;;15.46;50.58;102007.53;4996402;28;1204;-57
2023/02/28 10:30:49;;;;;;;;;;;;;;;17.14;46.40;101999.66;4996435;28;1009;-58
2023/02/28 10:33:25;;;;;;;;;;;;;;;16.85;46.80;101996.91;4996188;28;1029;-58
2023/02/28 10:35:51;;;;;;;;;;;;;;;16.09;49.12;101986.88;4996301;28;1108;-56
2023/02/28 10:38:23;;;;;;;;;;;;;;;15.80;49.83;101985.94;5007057;28;1373;-58
2023/02/28 10:40:48;;;;;;;;;;;;;;;15.59;50.33;101988.16;5005955;28;1977;-50
2023/02/28 10:43:14;;;;;;;;;;;;;;;15.45;50.54;101989.44;5006142;28;1267;-56
2023/02/28 10:45:39;;;;;;;;;;;;;;;16.72;47.39;101996.13;5004924;28;1172;-58
2023/02/28 10:48:05;;;;;;;;;;;;;;;17.15;46.43;101984.84;5005703;28;1172;-57
2023/02/28 10:50:39;;;;;;;;;;;;;;;16.17;48.66;101985.63;5006280;28;1220;-57
2023/02/28 10:53:27;;;;;;;;;;;;;;;15.80;49.49;101969.47;5017185;28;1250;-57
2023/02/28 10:56:08;;;;;;;;;;;;;;;15.60;50.12;101965.16;4990860;28;1172;-57
2023/02/28 10:58:49;;;;;;;;;;;;;;;15.52;50.48;101962.75;5001662;28;1120;-58
2023/02/28 11:01:21;;;;;;;;;;;;;;;17.26;46.25;101961.94;5006665;28;1047;-50
2023/02/28 11:03:47;;;;;;;;;;;;;;;16.58;47.76;101953.56;4998982;28;1021;-60
2023/02/28 11:06:17;;;;;;;;;;;;;;;16.11;49.25;101948.19;5006973;28;1291;-51
2023/02/28 11:09:05;;;;;;;;;;;;;;;15.83;49.67;101955.28;4999136;28;1172;-50
2023/02/28 11:11:31;;;;;;;;;;;;;;;15.60;50.39;101962.41;4974337;28;1450;-54
2023/02/28 11:13:57;;;;;;;;;;;;;;;15.48;50.70;101958.81;5007891;28;1179;-57
2023/02/28 11:16:31;;;;;;;;;;;;;;;15.54;50.78;101960.59;5017393;28;1360;-55
2023/02/28 11:18:56;;;;;;;;;;;;;;;17.22;46.36;101958.00;4996992;28;1976;-52
2023/02/28 11:21:23;;;;;;;;;;;;;;;16.83;47.21;101950.47;5014400;28;1115;-53
2023/02/28 11:23:49;;;;;;;;;;;;;;;16.12;48.90;101955.34;5014959;28;1099;-55
2023/02/28 11:26:14;;;;;;;;;;;;;;;15.83;49.72;101955.28;4999378;28;1234;-57
2023/02/28 11:28:40;;;;;;;;;;;;;;;15.67;50.07;101949.41;5014273;28;1080;-58
2023/02/28 11:31:06;;;;;;;;;;;;;;;15.66;50.14;101953.22;5014055;28;1116;-55
2023/02/28 11:33:31;;;;;;;;;;;;;;;17.22;46.50;101941.53;4999173;28;1104;-56
2023/02/28 11:36:13;;;;;;;;;;;;;;;16.29;48.44;101934.31;4998400;28;1164;-58
2023/02/28 11:38:38;;;;;;;;;;;;;;;15.82;49.74;101939.88;4998989;28;1977;-56
2023/02/28 11:41:23;;;;;;;;;;;;;;;15.61;50.40;101938.56;5013885;28;1118;-58
2023/02/28 11:43:48;;;;;;;;;;;;;;;15.47;50.72;101937.94;4998408;28;1295;-57
2023/02/28 11:46:17;;;;;;;;;;;;;;;16.98;46.94;101925.19;4998508;28;1037;-56
2023/02/28 11:48:45;;;;;;;;;;;;;;;16.62;47.81;101926.41;4998663;28;1176;-58
2023/02/28 11:51:10;;;;;;;;;;;;;;;15.95;49.39;101925.94;4998592;28;1021;-57
2023/02/28 11:53:54;;;;;;;;;;;;;;;15.74;50.06;101930.91;4998849;28;1049;-59
2023/02/28 11:56:39;;;;;;;;;;;;;;;15.52;50.46;101918.91;4998526;28;1029;-59
2023/02/28 11:59:10;;;;;;;;;;;;;;;15.36;50.66;101924.00;4998167;28;1971;-59
2023/02/28 12:01:39;;;;;;;;;;;;;;;15.31;50.88;101917.56;5019126;28;1016;-59
2023/02/28 12:04:10;;;;;;;;;;;;;;;16.92;47.26;101915.19;5001925;28;1278;-58
2023/02/28 12:06:39;;;;;;;;;;;;;;;17.36;45.70;101909.88;5007180;28;1227;-56
2023/02/28 12:09:28;;;;;;;;;;;;;;;16.29;48.56;101903.28;5007138;28;1203;-56
2023/02/28 12:11:55;;;;;;;;;;;;;;;15.87;49.36;101913.41;5007243;28;1028;-58
2023/02/28 12:14:30;;;;;;;;;;;;;;;15.67;50.02;101916.50;5013174;28;1060;-58
2023/02/28 12:17:01;;;;;;;;;;;;;;;15.49;50.29;101922.94;4997816;28;958;-57
2023/02/28 12:19:47;;;;;;;;;;;;;;;15.33;50.86;101920.91;4997696;28;1906;-57
2023/02/28 12:22:22;;;;;;;;;;;;;;;15.26;50.98;101926.50;5001133;28;1445;-57
2023/02/28 12:24:53;;;;;;;;;;;;;;;16.97;46.91;101923.53;5013034;28;1184;-56
2023/02/28 12:27:20;;;;;;;;;;;;;;;16.71;47.19;101923.03;4997791;28;1052;-52
2023/02/28 12:29:47;;;;;;;;;;;;;;;15.99;49.22;101924.38;5013145;28;1123;-56
2023/02/28 12:32:16;;;;;;;;;;;;;;;15.70;49.88;101924.25;5013731;28;1118;-51
2023/02/28 12:34:44;;;;;;;;;;;;;;;15.52;50.38;101935.34;5012814;28;1053;-58
2023/02/28 12:37:29;;;;;;;;;;;;;;;15.57;50.26;101938.19;5013091;28;1160;-56
2023/02/28 12:39:58;;;;;;;;;;;;;;;17.20;46.17;101932.72;4997703;28;1981;-57
2023/02/28 12:42:25;;;;;;;;;;;;;;;16.21;48.41;101926.44;4997494;28;1088;-56
2023/02/28 12:44:52;;;;;;;;;;;;;;;15.82;49.61;101932.50;4985215;28;1257;-57
2023/02/28 12:47:17;;;;;;;;;;;;;;;15.56;50.44;101918.16;4997521;28;994;-56
2023/02/28 12:50:00;;;;;;;;;;;;;;;16.41;48.39;101918.63;4997562;28;1128;-61
2023/02/28 12:52:29;;;;;;;;;;;;;;;16.95;46.54;101905.63;4997730;28;1128;-58